Time;durP1;ratioP1;P1;durP2;ratioP2;P2;SDS_P1;SDS_P2;PMS_P1;PMS_P2;Temp;Humidity;BMP_temperature;BMP_pressure;BME280_temperature;BME280_humidity;BME280_pressure;Samples;Min_cycle;Max_cycle;Signal;HPM_P1;HPM_P2
2021/05/03 00:01:54;;;;;;;3.92;1.70;;;8.10;99.90;;;;;;4190679;28;20037;-70
2021/05/03 00:03:54;;;;;;;4.45;2.17;;;8.00;99.90;;;;;;4192583;28;20127;-70
2021/05/03 00:05:57;;;;;;;4.28;2.00;;;8.00;99.90;;;;;;4192841;28;20093;-70
2021/05/03 00:07:58;;;;;;;2.63;1.80;;;7.90;99.90;;;;;;4192737;28;20138;-70
2021/05/03 00:09:59;;;;;;;2.00;1.77;;;8.00;99.90;;;;;;4192912;28;20032;-70
2021/05/03 00:11:59;;;;;;;2.05;1.70;;;8.00;99.90;;;;;;4192843;28;20033;-70
2021/05/03 00:14:01;;;;;;;3.30;2.00;;;7.90;99.90;;;;;;4192372;28;20047;-70
2021/05/03 00:16:01;;;;;;;4.25;1.90;;;7.90;99.90;;;;;;4192442;28;20040;-70
2021/05/03 00:18:02;;;;;;;1.77;1.60;;;7.90;99.90;;;;;;4191844;28;20413;-70
2021/05/03 00:20:03;;;;;;;5.13;2.08;;;7.90;99.90;;;;;;4192531;28;20071;-70
2021/05/03 00:22:04;;;;;;;2.95;1.90;;;7.90;99.90;;;;;;4190938;28;20061;-70
2021/05/03 00:24:05;;;;;;;2.60;2.08;;;7.80;99.90;;;;;;4192147;28;20101;-70
2021/05/03 00:26:07;;;;;;;2.67;1.65;;;7.80;99.90;;;;;;4190827;28;20036;-70
2021/05/03 00:28:09;;;;;;;2.30;1.90;;;7.80;99.90;;;;;;4192467;28;20148;-70
2021/05/03 00:30:10;;;;;;;2.38;1.77;;;7.70;99.90;;;;;;4184540;28;20037;-70
2021/05/03 00:32:11;;;;;;;2.72;1.92;;;7.70;99.90;;;;;;4190649;28;20047;-70
2021/05/03 00:34:13;;;;;;;3.58;1.73;;;7.70;99.90;;;;;;4190717;28;20128;-70
2021/05/03 00:36:13;;;;;;;3.13;1.88;;;7.70;99.90;;;;;;4192133;28;20504;-70
2021/05/03 00:38:14;;;;;;;2.15;1.95;;;7.70;99.90;;;;;;4189965;28;20071;-70
2021/05/03 00:40:15;;;;;;;2.60;2.28;;;7.60;99.90;;;;;;4191976;28;20027;-70
2021/05/03 00:42:15;;;;;;;2.78;1.98;;;7.60;99.90;;;;;;4192169;28;20040;-70
2021/05/03 00:44:16;;;;;;;2.92;2.08;;;7.60;99.90;;;;;;4191993;28;20044;-70
2021/05/03 00:46:19;;;;;;;2.63;2.17;;;7.60;99.90;;;;;;4192121;28;20144;-70
2021/05/03 00:48:20;;;;;;;3.83;2.45;;;7.50;99.90;;;;;;4192247;28;20506;-70
2021/05/03 00:50:24;;;;;;;3.45;2.40;;;7.50;99.90;;;;;;4191913;28;20111;-70
2021/05/03 00:52:25;;;;;;;3.50;2.28;;;7.50;99.90;;;;;;4191443;28;20052;-70
2021/05/03 00:54:25;;;;;;;3.60;2.40;;;7.50;99.90;;;;;;4191768;28;20028;-70
2021/05/03 00:56:26;;;;;;;3.22;2.20;;;7.40;99.90;;;;;;4191993;28;20028;-70
2021/05/03 00:58:27;;;;;;;3.50;2.47;;;7.40;99.90;;;;;;4192189;28;20032;-70
2021/05/03 01:00:27;;;;;;;4.45;2.58;;;7.40;99.90;;;;;;4192069;28;20036;-70
2021/05/03 01:02:28;;;;;;;3.28;2.20;;;7.40;99.90;;;;;;4192032;28;20055;-70
2021/05/03 01:04:28;;;;;;;2.60;2.20;;;7.40;99.90;;;;;;4173224;28;20039;-70
2021/05/03 01:06:29;;;;;;;5.47;2.55;;;7.30;99.90;;;;;;4192239;28;20041;-70
2021/05/03 01:08:29;;;;;;;4.07;2.50;;;7.30;99.90;;;;;;4173975;28;20029;-70
2021/05/03 01:10:30;;;;;;;3.45;2.45;;;7.30;99.90;;;;;;4191440;28;20032;-70
2021/05/03 01:12:31;;;;;;;3.08;2.50;;;7.30;99.90;;;;;;4192487;28;20066;-70
2021/05/03 01:14:32;;;;;;;2.97;2.38;;;7.30;99.90;;;;;;4191968;28;20495;-70
2021/05/03 01:16:33;;;;;;;4.57;2.50;;;7.30;99.90;;;;;;4191118;28;20476;-70
2021/05/03 01:18:37;;;;;;;2.72;2.10;;;7.20;99.90;;;;;;4190906;28;20033;-70
2021/05/03 01:20:38;;;;;;;4.32;2.50;;;7.20;99.90;;;;;;4191960;28;20408;-70
2021/05/03 01:22:40;;;;;;;2.90;1.92;;;7.20;99.90;;;;;;4190859;28;20043;-70
2021/05/03 01:24:41;;;;;;;2.65;2.05;;;7.20;99.90;;;;;;4192567;28;20048;-70
2021/05/03 01:26:42;;;;;;;3.25;1.98;;;7.20;99.90;;;;;;4192084;28;20082;-70
2021/05/03 01:28:42;;;;;;;3.50;2.65;;;7.20;99.90;;;;;;4194365;28;20091;-70
2021/05/03 01:30:45;;;;;;;3.05;2.20;;;7.20;99.90;;;;;;4195467;28;20404;-70
2021/05/03 01:32:46;;;;;;;2.75;2.13;;;7.20;99.90;;;;;;4193726;28;20177;-70
2021/05/03 01:34:46;;;;;;;2.72;2.22;;;7.20;99.90;;;;;;4193509;28;20021;-70
2021/05/03 01:36:48;;;;;;;3.33;2.00;;;7.20;99.90;;;;;;4195089;28;20029;-70
2021/05/03 01:38:48;;;;;;;3.85;2.05;;;7.20;99.90;;;;;;4194089;28;20494;-70
2021/05/03 01:40:49;;;;;;;4.13;2.50;;;7.20;99.90;;;;;;4192982;28;20053;-70
2021/05/03 01:42:50;;;;;;;3.15;2.38;;;7.20;99.90;;;;;;4194834;28;20036;-70
2021/05/03 01:45:00;;;;;;;2.67;2.20;;;7.20;99.90;;;;;;4192832;28;20095;-70
2021/05/03 01:47:01;;;;;;;5.38;2.20;;;7.10;99.90;;;;;;4186968;28;20051;-70
2021/05/03 01:49:04;;;;;;;3.28;2.35;;;7.10;99.90;;;;;;4194897;28;20032;-70
2021/05/03 01:51:06;;;;;;;4.68;2.30;;;7.10;99.90;;;;;;4176303;28;20130;-70
2021/05/03 01:53:07;;;;;;;4.37;2.47;;;7.20;99.90;;;;;;4210070;28;20087;-70
2021/05/03 01:55:08;;;;;;;2.78;2.22;;;7.10;99.90;;;;;;4194310;28;20045;-70
2021/05/03 01:57:09;;;;;;;4.25;2.55;;;7.10;99.90;;;;;;4194824;28;20059;-70
2021/05/03 01:59:09;;;;;;;4.13;2.67;;;7.10;99.90;;;;;;4195057;28;20029;-70
2021/05/03 02:01:10;;;;;;;4.50;3.00;;;7.00;99.90;;;;;;4192527;28;20124;-70
2021/05/03 02:03:24;;;;;;;3.65;2.22;;;6.90;99.90;;;;;;4193227;28;20075;-70
2021/05/03 02:05:26;;;;;;;3.90;2.75;;;6.90;99.90;;;;;;4190954;28;20476;-70
2021/05/03 02:07:27;;;;;;;3.28;2.67;;;6.90;99.90;;;;;;4194481;28;20060;-70
2021/05/03 02:09:27;;;;;;;4.70;2.92;;;6.90;99.90;;;;;;4194779;28;20021;-70
2021/05/03 02:11:28;;;;;;;4.85;2.90;;;6.90;99.90;;;;;;4194238;28;20025;-70
2021/05/03 02:13:30;;;;;;;5.03;2.88;;;6.90;99.90;;;;;;4192420;28;20036;-70
2021/05/03 02:15:31;;;;;;;5.80;3.33;;;6.90;99.90;;;;;;4194247;28;20043;-70
2021/05/03 02:17:32;;;;;;;4.33;2.80;;;6.90;99.90;;;;;;4193910;28;20032;-70
2021/05/03 02:19:33;;;;;;;4.15;3.30;;;6.90;99.90;;;;;;4194698;28;20297;-70
2021/05/03 02:21:33;;;;;;;6.03;3.33;;;6.90;99.90;;;;;;4194583;28;20579;-70
2021/05/03 02:23:34;;;;;;;3.85;3.00;;;6.90;99.90;;;;;;4192959;28;20040;-70
2021/05/03 02:25:34;;;;;;;4.47;2.67;;;6.90;99.90;;;;;;4194195;28;20583;-70
2021/05/03 02:27:36;;;;;;;3.95;2.88;;;6.90;99.90;;;;;;4192405;28;20095;-70
2021/05/03 02:29:36;;;;;;;4.55;3.10;;;6.90;99.90;;;;;;4193844;28;20029;-70
2021/05/03 02:31:37;;;;;;;5.05;2.97;;;6.80;99.90;;;;;;4192308;28;20526;-70
2021/05/03 02:33:37;;;;;;;5.45;2.80;;;6.80;99.90;;;;;;4194055;28;20040;-70
2021/05/03 02:35:38;;;;;;;6.43;3.22;;;6.80;99.90;;;;;;4192279;28;20044;-70
2021/05/03 02:37:38;;;;;;;7.07;3.17;;;6.80;99.90;;;;;;4194128;28;20111;-70
2021/05/03 02:39:42;;;;;;;4.88;3.20;;;6.80;99.90;;;;;;4192989;28;20230;-70
2021/05/03 02:41:42;;;;;;;5.05;3.08;;;6.80;99.90;;;;;;4192199;28;20399;-70
2021/05/03 02:43:43;;;;;;;3.58;2.95;;;6.80;99.90;;;;;;4193759;28;20036;-70
2021/05/03 02:45:43;;;;;;;4.40;3.05;;;6.80;99.90;;;;;;4193672;28;20033;-70
2021/05/03 02:47:44;;;;;;;4.20;2.95;;;6.80;99.90;;;;;;4193923;28;20047;-70
2021/05/03 02:49:45;;;;;;;6.47;3.08;;;6.80;99.90;;;;;;4194157;28;20101;-70
2021/05/03 02:51:46;;;;;;;3.38;3.00;;;6.80;99.90;;;;;;4193564;28;20028;-70
2021/05/03 02:53:46;;;;;;;4.57;2.97;;;6.80;99.90;;;;;;4193239;28;20040;-70
2021/05/03 02:55:47;;;;;;;4.70;3.30;;;6.80;99.90;;;;;;4191405;28;20111;-70
2021/05/03 02:57:49;;;;;;;5.65;3.20;;;6.80;99.90;;;;;;4193816;28;20029;-70
2021/05/03 02:59:50;;;;;;;;;;;6.70;99.90;;;;;;4176325;28;20520;-70
2021/05/03 03:01:51;;;;;;;4.90;3.42;;;6.70;99.90;;;;;;4193791;28;19908;-70
2021/05/03 03:03:51;;;;;;;6.35;3.50;;;6.70;99.90;;;;;;4193628;28;20070;-70
2021/05/03 03:05:52;;;;;;;6.18;3.50;;;6.70;99.90;;;;;;4191763;28;20040;-70
2021/05/03 03:07:53;;;;;;;4.43;3.40;;;6.70;99.90;;;;;;4191987;28;20556;-70
2021/05/03 03:09:53;;;;;;;6.78;4.00;;;6.70;99.90;;;;;;4191647;28;20169;-70
2021/05/03 03:11:54;;;;;;;6.30;3.70;;;6.70;99.90;;;;;;4193433;28;20546;-70
2021/05/03 03:13:55;;;;;;;5.38;3.75;;;6.70;99.90;;;;;;4193626;28;20035;-70
2021/05/03 03:15:55;;;;;;;4.45;3.20;;;6.70;99.90;;;;;;4191333;28;20060;-70
2021/05/03 03:17:56;;;;;;;5.55;3.63;;;6.60;99.90;;;;;;4185349;28;20040;-70
2021/05/03 03:19:57;;;;;;;4.53;3.45;;;6.70;99.90;;;;;;4193475;28;20025;-70
2021/05/03 03:21:57;;;;;;;3.80;3.40;;;6.60;99.90;;;;;;4192006;28;20031;-70
2021/05/03 03:23:58;;;;;;;5.20;3.50;;;6.70;99.90;;;;;;4193455;28;20052;-70
2021/05/03 03:25:59;;;;;;;4.85;3.38;;;6.60;99.90;;;;;;4193109;28;20043;-70
2021/05/03 03:27:59;;;;;;;4.50;3.03;;;6.60;99.90;;;;;;4193433;28;20037;-70
2021/05/03 03:30:00;;;;;;;6.00;3.38;;;6.60;99.90;;;;;;4190063;28;20028;-70
2021/05/03 03:32:01;;;;;;;5.28;3.30;;;6.60;99.90;;;;;;4193248;28;20040;-70
2021/05/03 03:34:01;;;;;;;4.88;3.50;;;6.60;99.90;;;;;;4193414;28;20029;-70
2021/05/03 03:36:03;;;;;;;4.55;3.20;;;6.50;99.90;;;;;;4193441;28;20086;-70
2021/05/03 03:38:03;;;;;;;5.85;3.60;;;6.50;99.90;;;;;;4189285;28;20048;-70
2021/05/03 03:40:06;;;;;;;4.50;3.05;;;6.50;99.90;;;;;;4184648;28;20031;-70
2021/05/03 03:42:06;;;;;;;8.35;4.13;;;6.50;99.90;;;;;;4193044;28;20044;-70
2021/05/03 03:44:09;;;;;;;5.70;3.85;;;6.50;99.90;;;;;;4174822;28;20563;-70
2021/05/03 03:46:09;;;;;;;5.18;3.40;;;6.50;99.90;;;;;;4208105;28;20044;-70
2021/05/03 03:48:10;;;;;;;5.35;3.58;;;6.50;99.90;;;;;;4190989;28;20477;-70
2021/05/03 03:50:11;;;;;;;4.43;3.50;;;6.40;99.90;;;;;;4191072;28;20817;-70
2021/05/03 03:52:11;;;;;;;7.75;3.78;;;6.40;99.90;;;;;;4190747;28;20171;-70
2021/05/03 03:54:12;;;;;;;5.05;3.70;;;6.40;99.90;;;;;;4192687;28;20043;-70
2021/05/03 03:56:14;;;;;;;6.45;3.83;;;6.40;99.90;;;;;;4192169;28;20029;-70
2021/05/03 03:58:14;;;;;;;6.45;4.05;;;6.40;99.90;;;;;;4192122;28;20028;-70
2021/05/03 04:00:16;;;;;;;5.22;3.67;;;6.40;99.90;;;;;;4190587;28;20047;-70
2021/05/03 04:02:16;;;;;;;7.13;4.10;;;6.40;99.90;;;;;;4192189;28;20074;-70
2021/05/03 04:04:24;;;;;;;22.30;4.00;;;6.40;99.90;;;;;;4192396;28;20036;-70
2021/05/03 04:24:28;;;;;;;6.40;4.35;;;6.20;99.90;;;;;;4191753;28;20036;-70
2021/05/03 04:26:28;;;;;;;7.65;4.00;;;6.20;99.90;;;;;;4190812;28;20049;-70
2021/05/03 04:28:29;;;;;;;9.30;4.88;;;6.20;99.90;;;;;;4189050;28;20143;-70
2021/05/03 04:30:30;;;;;;;7.00;4.30;;;6.30;99.90;;;;;;4190552;28;20055;-70
2021/05/03 04:32:31;;;;;;;6.30;4.53;;;6.30;99.90;;;;;;4191818;28;20090;-70
2021/05/03 04:34:31;;;;;;;6.63;3.72;;;6.30;99.90;;;;;;4191853;28;20563;-70
2021/05/03 04:36:32;;;;;;;6.82;4.15;;;6.30;99.90;;;;;;4192277;28;20471;-70
2021/05/03 04:38:33;;;;;;;9.50;4.75;;;6.20;99.90;;;;;;4189946;28;20090;-70
2021/05/03 04:40:34;;;;;;;6.70;3.88;;;6.20;99.90;;;;;;4191776;28;20029;-70
2021/05/03 04:42:34;;;;;;;5.90;4.32;;;6.20;99.90;;;;;;4192076;28;20492;-70
2021/05/03 04:44:35;;;;;;;5.47;4.13;;;6.20;99.90;;;;;;4191572;28;20135;-70
2021/05/03 04:46:36;;;;;;;6.65;3.78;;;6.20;99.90;;;;;;4191716;28;20037;-70
2021/05/03 04:48:36;;;;;;;7.82;4.57;;;6.20;99.90;;;;;;4188809;28;20138;-70
2021/05/03 04:50:37;;;;;;;9.35;5.10;;;6.20;99.90;;;;;;4190594;28;20025;-70
2021/05/03 04:52:38;;;;;;;8.23;4.90;;;6.20;99.90;;;;;;4191524;28;20090;-70
2021/05/03 04:54:40;;;;;;;7.22;4.63;;;6.20;99.90;;;;;;4191479;28;20071;-70
2021/05/03 04:56:40;;;;;;;5.85;4.30;;;6.20;99.90;;;;;;4191638;28;20039;-70
2021/05/03 04:58:41;;;;;;;6.65;4.80;;;6.20;99.90;;;;;;4191757;28;20487;-70
2021/05/03 05:00:42;;;;;;;8.02;4.88;;;6.20;99.90;;;;;;4190081;28;20029;-70
2021/05/03 05:02:42;;;;;;;7.35;4.35;;;6.30;99.90;;;;;;4191760;28;20043;-71
2021/05/03 05:04:43;;;;;;;9.68;4.80;;;6.30;99.90;;;;;;4195058;28;20056;-70
2021/05/03 05:06:43;;;;;;;6.95;4.88;;;6.30;99.90;;;;;;4195564;28;20058;-70
2021/05/03 05:08:44;;;;;;;9.15;5.05;;;6.30;99.90;;;;;;4194740;28;20452;-70
2021/05/03 05:10:45;;;;;;;8.65;5.18;;;6.30;99.90;;;;;;4195288;28;20043;-70
2021/05/03 05:12:45;;;;;;;7.60;4.80;;;6.30;99.90;;;;;;4194902;28;20032;-70
2021/05/03 05:14:46;;;;;;;10.32;5.18;;;6.40;99.90;;;;;;4194508;28;20116;-70
2021/05/03 05:16:48;;;;;;;6.30;4.97;;;6.40;99.90;;;;;;4193570;28;20037;-70
2021/05/03 05:18:48;;;;;;;7.93;4.85;;;6.40;99.90;;;;;;4195108;28;20035;-70
2021/05/03 05:20:49;;;;;;;9.13;5.13;;;6.40;99.90;;;;;;4194639;28;20124;-70
2021/05/03 05:22:50;;;;;;;9.90;4.65;;;6.50;99.90;;;;;;4183375;28;20039;-70
2021/05/03 05:24:51;;;;;;;6.75;5.20;;;6.40;99.90;;;;;;4193942;28;20043;-71
2021/05/03 05:26:52;;;;;;;7.53;4.78;;;6.40;99.90;;;;;;4193016;28;20407;-70
2021/05/03 05:28:52;;;;;;;6.75;4.68;;;6.40;99.90;;;;;;4194321;28;20056;-70
2021/05/03 05:30:53;;;;;;;7.53;5.38;;;6.40;99.90;;;;;;4192903;28;20036;-70
2021/05/03 05:32:54;;;;;;;8.65;5.63;;;6.30;99.90;;;;;;4194362;28;20052;-70
2021/05/03 05:34:54;;;;;;;9.57;4.43;;;6.30;99.90;;;;;;4193009;28;20160;-70
2021/05/03 05:36:56;;;;;;;10.90;5.50;;;6.40;99.90;;;;;;4192646;28;20078;-70
2021/05/03 05:38:56;;;;;;;7.32;5.07;;;6.50;99.90;;;;;;4192664;28;20043;-70
2021/05/03 05:40:57;;;;;;;6.80;5.40;;;6.50;99.90;;;;;;4194706;28;20471;-70
2021/05/03 05:42:58;;;;;;;11.60;5.43;;;6.50;99.90;;;;;;4194508;28;20028;-70
2021/05/03 05:44:58;;;;;;;11.38;5.95;;;6.50;99.90;;;;;;4192305;28;20033;-70
2021/05/03 05:46:59;;;;;;;8.95;5.78;;;6.60;99.90;;;;;;4195069;28;24858;-70
2021/05/03 05:49:00;;;;;;;9.77;6.30;;;6.60;99.90;;;;;;4194015;28;20071;-70
2021/05/03 05:51:01;;;;;;;9.23;5.72;;;6.70;99.90;;;;;;4194766;28;20431;-70
2021/05/03 05:53:02;;;;;;;10.23;6.40;;;6.70;99.90;;;;;;4191982;28;20032;-70
2021/05/03 05:55:03;;;;;;;10.98;6.75;;;6.80;99.90;;;;;;4192462;28;20040;-70
2021/05/03 05:57:04;;;;;;;11.48;6.72;;;6.80;99.90;;;;;;4191849;28;20067;-69
2021/05/03 05:59:06;;;;;;;10.25;6.13;;;6.80;99.90;;;;;;4194257;28;20467;-69
2021/05/03 06:01:07;;;;;;;9.50;5.60;;;6.80;99.90;;;;;;4193808;28;20430;-69
2021/05/03 06:03:08;;;;;;;8.15;5.68;;;6.90;99.90;;;;;;4194236;28;20047;-69
2021/05/03 06:05:10;;;;;;;7.85;4.72;;;7.00;99.90;;;;;;4192833;28;20110;-69
2021/05/03 06:07:10;;;;;;;10.38;5.88;;;7.00;99.90;;;;;;4191930;28;20047;-69
2021/05/03 06:09:11;;;;;;;8.93;5.53;;;7.00;99.90;;;;;;4192972;28;20533;-69
2021/05/03 06:11:12;;;;;;;8.57;5.00;;;7.00;99.90;;;;;;4193934;28;20033;-69
2021/05/03 06:13:14;;;;;;;8.23;4.95;;;7.00;99.90;;;;;;4193184;28;20033;-69
2021/05/03 06:15:14;;;;;;;9.43;5.22;;;7.10;99.90;;;;;;4192184;28;20067;-69
2021/05/03 06:17:16;;;;;;;8.90;5.30;;;7.10;99.90;;;;;;4193937;28;20469;-69
2021/05/03 06:19:16;;;;;;;10.10;5.18;;;7.20;99.90;;;;;;4193585;28;20036;-69
2021/05/03 06:21:17;;;;;;;6.43;4.45;;;7.20;99.90;;;;;;4191469;28;20738;-69
2021/05/03 06:23:17;;;;;;;9.77;4.95;;;7.30;99.90;;;;;;4187767;28;20681;-69
2021/05/03 06:25:18;;;;;;;7.72;4.95;;;7.30;99.90;;;;;;4188511;28;20040;-69
2021/05/03 06:27:19;;;;;;;9.70;5.40;;;7.30;99.90;;;;;;4184800;28;20037;-69
2021/05/03 06:29:19;;;;;;;7.18;4.30;;;7.40;99.90;;;;;;4189195;28;20159;-69
2021/05/03 06:31:21;;;;;;;6.97;5.10;;;7.40;99.90;;;;;;4191767;28;20098;-69
2021/05/03 06:33:22;;;;;;;8.35;4.80;;;7.40;99.90;;;;;;4190479;28;20523;-69
2021/05/03 06:35:24;;;;;;;8.10;4.65;;;7.50;99.90;;;;;;4192436;28;20029;-69
2021/05/03 06:37:24;;;;;;;7.00;4.32;;;7.50;99.90;;;;;;4190582;28;20044;-69
2021/05/03 06:39:25;;;;;;;6.55;4.85;;;7.60;99.90;;;;;;4192436;28;20074;-69
2021/05/03 06:41:26;;;;;;;12.93;5.50;;;7.60;99.90;;;;;;4193236;28;20025;-69
2021/05/03 06:43:27;;;;;;;6.30;4.90;;;7.70;99.90;;;;;;4192859;28;20040;-69
2021/05/03 06:45:30;;;;;;;8.02;5.50;;;7.60;99.90;;;;;;4191527;28;20119;-69
2021/05/03 06:47:31;;;;;;;6.55;4.88;;;7.60;99.90;;;;;;4191127;28;20120;-69
2021/05/03 06:49:32;;;;;;;7.60;5.38;;;7.70;99.90;;;;;;4191979;28;20029;-69
2021/05/03 06:51:32;;;;;;;7.32;4.90;;;7.70;99.90;;;;;;4191079;28;20091;-69
2021/05/03 06:53:33;;;;;;;9.90;5.72;;;7.80;99.90;;;;;;4191802;28;20361;-69
2021/05/03 06:55:34;;;;;;;6.55;4.88;;;7.80;99.90;;;;;;4192875;28;20032;-69
2021/05/03 06:57:34;;;;;;;7.93;5.43;;;7.90;99.90;;;;;;4189954;28;20724;-69
2021/05/03 06:59:35;;;;;;;9.25;5.60;;;7.90;99.90;;;;;;4192455;28;20392;-69
2021/05/03 07:01:36;;;;;;;8.98;5.38;;;7.90;99.90;;;;;;4191200;28;20111;-70
2021/05/03 07:03:37;;;;;;;7.75;5.22;;;8.00;99.90;;;;;;4190696;28;20568;-69
2021/05/03 07:05:38;;;;;;;11.05;5.32;;;8.00;99.90;;;;;;4190229;28;20044;-69
2021/05/03 07:07:39;;;;;;;10.07;5.22;;;8.10;99.90;;;;;;4190192;28;20028;-69
2021/05/03 07:09:42;;;;;;;9.60;5.20;;;8.10;99.90;;;;;;4187807;28;20110;-69
2021/05/03 07:11:45;;;;;;;7.65;5.13;;;8.20;99.90;;;;;;4191617;28;20108;-69
2021/05/03 07:13:45;;;;;;;;;;;8.30;99.90;;;;;;4192096;28;20059;-69
2021/05/03 07:15:46;;;;;;;8.00;4.97;;;8.40;99.90;;;;;;4191318;28;19904;-69
2021/05/03 07:17:47;;;;;;;12.38;5.43;;;8.40;99.90;;;;;;4191930;28;20060;-69
2021/05/03 07:19:47;;;;;;;8.88;5.18;;;8.50;99.90;;;;;;4195897;28;20029;-69
2021/05/03 07:21:48;;;;;;;12.00;5.63;;;8.50;99.90;;;;;;4191803;28;20123;-69
2021/05/03 07:23:50;;;;;;;7.90;5.28;;;8.60;99.90;;;;;;4190272;28;20032;-69
2021/05/03 07:25:50;;;;;;;9.35;4.78;;;8.60;99.90;;;;;;4191296;28;20082;-69
2021/05/03 07:27:51;;;;;;;7.53;4.82;;;8.80;99.90;;;;;;4191061;28;20028;-69
2021/05/03 07:29:52;;;;;;;8.90;4.85;;;8.80;99.90;;;;;;4191548;28;20032;-69
2021/05/03 07:31:53;;;;;;;9.10;4.35;;;8.90;99.90;;;;;;4190159;28;20054;-70
2021/05/03 07:33:54;;;;;;;8.93;5.13;;;9.00;99.90;;;;;;4191588;28;20075;-69
2021/05/03 07:35:55;;;;;;;7.82;4.68;;;9.10;99.90;;;;;;4191404;28;20384;-69
2021/05/03 07:37:56;;;;;;;5.88;4.40;;;9.20;99.90;;;;;;4190998;28;20112;-69
2021/05/03 07:39:56;;;;;;;6.70;4.25;;;9.20;99.90;;;;;;4190704;28;20036;-69
2021/05/03 07:41:57;;;;;;;6.78;4.57;;;9.40;99.90;;;;;;4191339;28;20028;-69
2021/05/03 07:43:58;;;;;;;9.27;4.60;;;9.40;99.90;;;;;;4190129;28;20066;-69
2021/05/03 07:45:59;;;;;;;10.05;5.38;;;9.50;99.90;;;;;;4189418;28;20037;-69
2021/05/03 07:48:00;;;;;;;5.93;4.35;;;9.50;99.90;;;;;;4190891;28;20103;-69
2021/05/03 07:50:00;;;;;;;7.90;4.75;;;9.60;99.90;;;;;;4191578;28;20029;-69
2021/05/03 07:52:01;;;;;;;6.85;4.47;;;9.70;99.90;;;;;;4191110;28;20048;-69
2021/05/03 07:54:02;;;;;;;7.40;4.30;;;9.80;99.90;;;;;;4172679;28;20523;-69
2021/05/03 07:56:02;;;;;;;7.85;3.83;;;9.90;99.90;;;;;;4191724;28;20119;-69
2021/05/03 07:58:03;;;;;;;9.52;4.30;;;9.90;99.90;;;;;;4189834;28;20649;-69
2021/05/03 08:00:05;;;;;;;8.68;5.03;;;10.00;99.90;;;;;;4190921;28;20763;-69
2021/05/03 08:02:06;;;;;;;6.30;4.05;;;10.10;99.90;;;;;;4189413;28;20547;-69
2021/05/03 08:04:07;;;;;;;8.95;4.45;;;10.20;99.90;;;;;;4191005;28;20041;-69
2021/05/03 08:06:12;;;;;;;10.27;5.05;;;10.30;99.90;;;;;;4189363;28;20036;-69
2021/05/03 08:08:13;;;;;;;7.88;4.78;;;10.40;99.90;;;;;;4190509;28;20032;-70
2021/05/03 08:10:14;;;;;;;5.82;4.05;;;10.50;99.90;;;;;;4189310;28;20155;-69
2021/05/03 08:12:15;;;;;;;7.57;4.95;;;10.60;99.90;;;;;;4189664;28;20032;-69
2021/05/03 08:14:19;;;;;;;7.78;4.20;;;10.70;99.90;;;;;;4189423;28;20040;-69
2021/05/03 08:16:22;;;;;;;7.63;4.22;;;10.80;99.90;;;;;;4186942;28;20039;-69
2021/05/03 08:18:22;;;;;;;6.68;3.92;;;10.90;99.90;;;;;;4190634;28;20063;-69
2021/05/03 08:20:23;;;;;;;5.97;4.30;;;11.00;99.90;;;;;;4190682;28;20098;-69
2021/05/03 08:22:23;;;;;;;9.88;4.65;;;11.10;99.90;;;;;;4190264;28;20039;-69
2021/05/03 08:24:24;;;;;;;6.28;3.80;;;11.20;99.90;;;;;;4190449;28;20037;-69
2021/05/03 08:26:25;;;;;;;4.72;3.83;;;11.30;99.90;;;;;;4188364;28;20033;-69
2021/05/03 08:28:26;;;;;;;14.43;5.72;;;11.50;99.90;;;;;;4189119;28;20059;-69
2021/05/03 08:30:26;;;;;;;7.90;4.72;;;11.50;99.90;;;;;;4190415;28;20028;-69
2021/05/03 08:32:27;;;;;;;7.05;4.55;;;11.60;99.90;;;;;;4189635;28;20357;-69
2021/05/03 08:34:28;;;;;;;7.95;4.50;;;11.60;99.90;;;;;;4190872;28;20021;-69
2021/05/03 08:36:28;;;;;;;7.60;4.72;;;11.70;99.90;;;;;;4190274;28;20547;-69
2021/05/03 08:38:29;;;;;;;6.40;4.05;;;11.80;99.90;;;;;;4187467;28;20029;-69
2021/05/03 08:40:31;;;;;;;9.35;5.13;;;11.90;99.90;;;;;;4190586;28;20123;-71
2021/05/03 08:42:31;;;;;;;9.25;5.35;;;12.00;99.20;;;;;;4188800;28;20048;-69
2021/05/03 08:44:33;;;;;;;6.18;4.50;;;12.10;97.90;;;;;;4190509;28;20048;-69
2021/05/03 08:46:39;;;;;;;10.77;5.28;;;12.10;95.60;;;;;;4190828;28;20036;-68
2021/05/03 08:48:53;;;;;;;11.50;5.43;;;12.20;96.30;;;;;;4188643;28;20079;-68
2021/05/03 08:51:15;;;;;;;9.40;6.10;;;12.30;95.70;;;;;;4189958;28;20100;-68
2021/05/03 08:53:33;;;;;;;9.60;5.32;;;12.30;94.80;;;;;;4187124;28;20082;-68
2021/05/03 08:55:34;;;;;;;9.02;5.63;;;12.50;95.00;;;;;;4188423;28;20036;-68
2021/05/03 08:57:34;;;;;;;6.13;4.50;;;12.60;94.40;;;;;;4187618;28;20036;-67
2021/05/03 08:59:36;;;;;;;8.40;5.63;;;12.60;95.10;;;;;;4187688;28;20040;-68
2021/05/03 09:01:37;;;;;;;9.30;5.63;;;12.70;92.20;;;;;;4190240;28;20032;-68
2021/05/03 09:03:40;;;;;;;10.43;5.43;;;12.80;96.20;;;;;;4187648;28;20035;-68
2021/05/03 09:05:42;;;;;;;10.23;5.00;;;12.90;93.40;;;;;;4188118;28;20056;-68
2021/05/03 09:07:47;;;;;;;9.07;5.80;;;13.00;94.90;;;;;;4188280;28;20741;-68
2021/05/03 09:09:51;;;;;;;10.48;5.45;;;13.10;91.00;;;;;;4190349;28;20025;-68
2021/05/03 09:12:07;;;;;;;7.45;4.60;;;13.20;91.80;;;;;;4190432;28;20116;-68
2021/05/03 09:14:12;;;;;;;6.90;4.65;;;13.30;90.50;;;;;;4193849;28;20024;-68
2021/05/03 09:16:19;;;;;;;7.70;5.55;;;13.30;90.40;;;;;;4188545;28;20033;-68
2021/05/03 09:18:20;;;;;;;7.03;5.15;;;13.40;87.20;;;;;;4190735;28;20128;-68
2021/05/03 09:20:23;;;;;;;9.70;5.53;;;13.40;88.40;;;;;;4188844;28;20040;-68
2021/05/03 09:25:16;;;;;;;;;;;13.60;87.90;;;;;;4184096;28;20072;-68
2021/05/03 09:27:20;;;;;;;5.47;4.18;;;13.70;84.50;;;;;;4187832;28;20415;-68
2021/05/03 09:29:49;;;;;;;7.28;4.55;;;13.80;84.40;;;;;;4188282;28;20048;-68
2021/05/03 09:32:03;;;;;;;8.75;4.97;;;13.90;83.50;;;;;;4175625;28;20036;-68
2021/05/03 09:34:30;;;;;;;15.40;5.30;;;13.90;86.40;;;;;;4187646;28;20040;-65
2021/05/03 09:36:31;;;;;;;9.23;5.60;;;14.00;83.20;;;;;;4189999;28;20472;-65
2021/05/03 09:38:31;;;;;;;8.02;5.80;;;14.00;79.70;;;;;;4189276;28;20088;-68
2021/05/03 09:40:32;;;;;;;6.30;4.70;;;14.10;80.20;;;;;;4190047;28;20040;-68
2021/05/03 09:42:52;;;;;;;8.55;5.45;;;14.10;80.80;;;;;;4188117;28;20032;-68
2021/05/03 09:45:11;;;;;;;9.80;4.97;;;14.20;81.20;;;;;;4190032;28;20040;-68
2021/05/03 09:47:13;;;;;;;10.63;6.03;;;14.30;77.20;;;;;;4188353;28;20025;-65
2021/05/03 09:49:19;;;;;;;7.85;5.82;;;14.30;79.30;;;;;;4191161;28;20021;-65
2021/05/03 09:51:44;;;;;;;9.82;5.95;;;14.40;82.00;;;;;;4190980;28;20033;-65
2021/05/03 09:54:04;;;;;;;7.85;5.47;;;14.40;77.10;;;;;;4191177;28;20032;-65
2021/05/03 09:56:05;;;;;;;6.80;4.75;;;14.50;79.00;;;;;;4192596;28;20035;-67
2021/05/03 09:58:15;;;;;;;9.57;6.10;;;14.50;79.90;;;;;;4192286;28;20036;-67
2021/05/03 10:00:34;;;;;;;9.05;6.18;;;14.60;80.70;;;;;;4190131;28;20055;-67
2021/05/03 10:02:36;;;;;;;9.13;6.07;;;14.60;77.40;;;;;;4191659;28;20032;-67
2021/05/03 10:04:44;;;;;;;8.25;5.55;;;14.60;77.00;;;;;;4174100;28;20062;-67
2021/05/03 10:06:45;;;;;;;10.70;6.10;;;14.60;76.90;;;;;;4189697;28;20067;-67
2021/05/03 10:08:51;;;;;;;8.38;6.00;;;14.70;77.70;;;;;;4191592;28;20664;-67
2021/05/03 10:10:54;;;;;;;10.40;5.75;;;14.70;78.10;;;;;;4192446;28;20033;-67
2021/05/03 10:12:56;;;;;;;12.00;5.75;;;14.80;77.90;;;;;;4192081;28;20082;-67
2021/05/03 10:14:59;;;;;;;6.90;5.65;;;14.70;74.30;;;;;;4188579;28;20029;-67
2021/05/03 10:17:01;;;;;;;9.40;5.82;;;14.70;75.30;;;;;;4191468;28;20404;-67
2021/05/03 10:19:02;;;;;;;7.80;6.07;;;14.70;76.20;;;;;;4193053;28;20464;-67
2021/05/03 10:21:10;;;;;;;9.35;5.63;;;14.80;77.50;;;;;;4190781;28;20036;-67
2021/05/03 10:23:13;;;;;;;7.82;5.30;;;14.90;76.70;;;;;;4190853;28;20052;-67
2021/05/03 10:25:17;;;;;;;9.27;5.90;;;14.90;74.50;;;;;;4192816;28;20697;-67
2021/05/03 10:27:19;;;;;;;8.52;5.68;;;14.90;74.60;;;;;;4192756;28;20102;-67
2021/05/03 10:29:41;;;;;;;7.83;5.67;;;14.90;73.20;;;;;;4174120;28;20025;-67
2021/05/03 10:32:09;;;;;;;8.18;5.25;;;14.80;70.30;;;;;;4192533;28;20592;-67
2021/05/03 10:34:41;;;;;;;10.27;6.13;;;14.80;68.60;;;;;;4169102;28;20055;-67
2021/05/03 10:36:42;;;;;;;14.10;6.40;;;14.80;72.60;;;;;;4189535;28;20044;-67
2021/05/03 10:38:43;;;;;;;11.73;5.85;;;14.80;72.70;;;;;;4191179;28;20512;-67
2021/05/03 10:40:43;;;;;;;8.95;6.15;;;14.80;72.20;;;;;;4192952;28;20104;-67
2021/05/03 10:43:02;;;;;;;9.73;5.22;;;14.80;71.90;;;;;;4192361;28;20086;-66
2021/05/03 10:45:14;;;;;;;6.53;5.15;;;14.80;71.40;;;;;;4191101;28;20048;-67
2021/05/03 10:47:38;;;;;;;9.23;5.53;;;14.80;71.40;;;;;;4192116;28;20039;-67
2021/05/03 10:49:44;;;;;;;7.97;5.82;;;14.80;69.80;;;;;;4190744;28;20029;-67
2021/05/03 10:51:58;;;;;;;7.55;5.60;;;14.90;68.30;;;;;;4190214;28;20028;-67
2021/05/03 10:54:23;;;;;;;7.72;5.32;;;14.80;68.90;;;;;;4192464;28;20476;-67
2021/05/03 10:56:40;;;;;;;10.23;5.78;;;14.80;65.50;;;;;;4190285;28;20111;-67
2021/05/03 10:58:52;;;;;;;7.40;5.20;;;14.80;66.00;;;;;;4190825;28;20037;-67
2021/05/03 11:01:06;;;;;;;10.35;5.45;;;14.80;68.80;;;;;;4190030;28;20404;-66
2021/05/03 11:03:06;;;;;;;7.32;6.00;;;14.90;67.30;;;;;;4189680;28;20047;-67
2021/05/03 11:05:14;;;;;;;7.07;5.53;;;15.00;68.10;;;;;;4191757;28;20044;-67